createdAt,value
2023-04-19T00:01:43.628Z,3.97
2023-04-19T00:04:11.513Z,2.77
2023-04-19T00:06:41.110Z,3.47
2023-04-19T00:09:08.829Z,3.43
2023-04-19T00:11:36.573Z,3.50
2023-04-19T00:14:04.334Z,2.73
2023-04-19T00:16:32.042Z,2.83
2023-04-19T00:19:01.681Z,2.33
2023-04-19T00:21:29.480Z,2.70
2023-04-19T00:23:57.180Z,2.30
2023-04-19T00:26:24.930Z,2.40
2023-04-19T00:28:52.711Z,2.60
2023-04-19T00:31:20.456Z,1.97
2023-04-19T00:33:48.188Z,2.47
2023-04-19T00:36:17.301Z,1.73
2023-04-19T00:38:45.027Z,2.30
2023-04-19T00:41:12.711Z,2.43
2023-04-19T00:43:40.486Z,2.70
2023-04-19T00:46:08.337Z,2.33
2023-04-19T00:48:37.148Z,2.50
2023-04-19T00:51:05.600Z,2.93
2023-04-19T00:53:35.398Z,2.20
2023-04-19T00:56:06.033Z,2.87
2023-04-19T00:58:33.992Z,2.50
2023-04-19T01:01:02.300Z,2.40
2023-04-19T01:03:30.329Z,2.33
2023-04-19T01:05:58.302Z,2.70
2023-04-19T01:08:26.050Z,2.83
2023-04-19T01:10:55.225Z,2.00
2023-04-19T01:13:23.181Z,3.07
2023-04-19T01:15:51.617Z,2.33
2023-04-19T01:18:20.009Z,2.43
2023-04-19T01:20:47.737Z,2.57
2023-04-19T01:23:16.843Z,3.03
2023-04-19T01:25:44.566Z,2.70
2023-04-19T01:28:12.279Z,2.60
2023-04-19T01:30:40.020Z,2.50
2023-04-19T01:33:07.738Z,2.47
2023-04-19T01:35:35.494Z,2.47
2023-04-19T01:38:03.240Z,3.00
2023-04-19T01:40:32.334Z,2.30
2023-04-19T01:43:00.037Z,2.63
2023-04-19T01:45:27.706Z,2.60
2023-04-19T01:47:55.982Z,2.27
2023-04-19T01:50:23.772Z,2.53
2023-04-19T01:52:51.532Z,2.57
2023-04-19T01:55:19.466Z,2.37
2023-04-19T01:57:48.544Z,2.60
2023-04-19T02:00:18.009Z,2.77
2023-04-19T02:02:45.900Z,2.70
2023-04-19T02:05:14.231Z,2.47
2023-04-19T02:07:41.926Z,2.50
2023-04-19T02:10:11.856Z,2.77
2023-04-19T02:12:39.943Z,2.90
2023-04-19T02:15:09.907Z,2.50
2023-04-19T02:17:38.715Z,2.97
2023-04-19T02:20:09.215Z,2.40
2023-04-19T02:22:36.942Z,2.70
2023-04-19T02:25:05.390Z,2.70
2023-04-19T02:27:33.088Z,2.90
2023-04-19T02:30:00.809Z,2.20
2023-04-19T02:32:29.896Z,3.00
2023-04-19T02:34:57.670Z,2.63
2023-04-19T02:37:25.500Z,2.60
2023-04-19T02:39:53.269Z,2.40
2023-04-19T02:42:20.930Z,2.60
2023-04-19T02:44:48.685Z,2.20
2023-04-19T02:47:16.389Z,2.20
2023-04-19T02:49:45.407Z,2.73
2023-04-19T02:52:13.157Z,2.30
2023-04-19T02:54:40.892Z,2.20
2023-04-19T02:57:08.575Z,2.37
2023-04-19T02:59:36.321Z,2.13
2023-04-19T03:02:04.070Z,2.50
2023-04-19T03:04:32.265Z,2.60
2023-04-19T03:07:01.489Z,2.40
2023-04-19T03:09:29.488Z,2.20
2023-04-19T03:11:57.168Z,2.60
2023-04-19T03:14:24.859Z,2.43
2023-04-19T03:16:52.666Z,2.30
2023-04-19T03:19:20.419Z,2.70
2023-04-19T03:21:48.318Z,2.47
2023-04-19T03:24:17.553Z,2.50
2023-04-19T03:26:45.383Z,2.17
2023-04-19T03:29:14.491Z,2.20
2023-04-19T03:31:42.320Z,2.70
2023-04-19T03:34:10.201Z,2.00
2023-04-19T03:36:37.894Z,2.30
2023-04-19T03:39:05.858Z,2.50
2023-04-19T03:41:35.053Z,2.17
2023-04-19T03:44:03.080Z,2.80
2023-04-19T03:46:31.608Z,2.37
2023-04-19T03:48:59.578Z,2.50
2023-04-19T03:51:27.779Z,2.77
2023-04-19T03:53:55.528Z,2.00
2023-04-19T03:56:24.059Z,2.27
2023-04-19T03:58:53.397Z,2.30
2023-04-19T04:01:21.430Z,2.30
2023-04-19T04:03:49.721Z,2.30
2023-04-19T04:06:17.886Z,2.20
2023-04-19T04:08:46.184Z,2.37
2023-04-19T04:11:13.945Z,2.20
2023-04-19T04:13:41.627Z,1.90
2023-04-19T04:16:10.769Z,2.20
2023-04-19T04:18:38.753Z,2.10
2023-04-19T04:21:06.493Z,2.37
2023-04-19T04:23:34.911Z,2.20
2023-04-19T04:26:04.312Z,2.30
2023-04-19T04:28:32.245Z,2.20
2023-04-19T04:31:00.454Z,1.80
2023-04-19T04:33:29.734Z,2.10
2023-04-19T04:35:57.882Z,2.20
2023-04-19T04:38:25.835Z,2.50
2023-04-19T04:40:54.486Z,2.57
2023-04-19T04:43:22.821Z,2.23
2023-04-19T04:45:51.799Z,2.10
2023-04-19T04:48:19.566Z,2.17
2023-04-19T04:50:48.647Z,2.50
2023-04-19T04:53:16.451Z,2.33
2023-04-19T04:55:44.130Z,2.20
2023-04-19T04:58:11.859Z,2.37
2023-04-19T05:00:39.666Z,2.77
2023-04-19T05:03:07.872Z,2.20
2023-04-19T05:05:36.009Z,2.67
2023-04-19T05:08:06.174Z,2.53
2023-04-19T05:10:33.896Z,2.53
2023-04-19T05:13:02.235Z,2.33
2023-04-19T05:15:29.980Z,2.03
2023-04-19T05:17:57.702Z,2.47
2023-04-19T05:20:25.674Z,1.97
2023-04-19T05:22:58.322Z,2.10
2023-04-19T05:25:27.604Z,2.23
2023-04-19T05:27:55.645Z,2.07
2023-04-19T05:30:23.350Z,2.23
2023-04-19T05:32:52.591Z,1.97
2023-04-19T05:35:20.503Z,2.00
2023-04-19T05:37:48.265Z,2.20
2023-04-19T05:40:16.035Z,2.00
2023-04-19T05:42:45.092Z,2.60
2023-04-19T05:45:15.559Z,2.30
2023-04-19T05:47:43.460Z,2.40
2023-04-19T05:50:11.661Z,2.10
2023-04-19T05:52:39.525Z,2.03
2023-04-19T05:55:07.771Z,2.10
2023-04-19T05:57:36.089Z,1.97
2023-04-19T06:00:06.128Z,1.93
2023-04-19T06:02:33.932Z,2.10
2023-04-19T06:05:09.342Z,2.27
2023-04-19T06:07:43.110Z,1.80
2023-04-19T06:10:15.067Z,1.90
2023-04-19T06:12:42.745Z,1.93
2023-04-19T06:15:12.857Z,1.60
2023-04-19T06:17:40.559Z,2.23
2023-04-19T06:20:10.156Z,2.00
2023-04-19T06:22:46.078Z,1.80
2023-04-19T06:25:13.790Z,2.10
2023-04-19T06:27:41.701Z,1.47
2023-04-19T06:30:11.717Z,1.57
2023-04-19T06:32:39.579Z,1.80
2023-04-19T06:35:08.546Z,1.70
2023-04-19T06:37:36.447Z,1.80
2023-04-19T06:40:07.221Z,1.70
2023-04-19T06:42:35.089Z,2.13
2023-04-19T06:45:03.119Z,1.80
2023-04-19T06:47:35.445Z,1.60
2023-04-19T06:50:03.506Z,1.57
2023-04-19T06:52:31.282Z,1.53
2023-04-19T06:54:59.117Z,1.40
2023-04-19T06:57:26.917Z,1.40
2023-04-19T06:59:56.145Z,1.57
2023-04-19T07:02:24.088Z,2.00
2023-04-19T07:04:53.359Z,1.67
2023-04-19T07:07:21.137Z,1.57
2023-04-19T07:09:48.906Z,1.67
2023-04-19T07:12:17.189Z,1.60
2023-04-19T07:14:45.028Z,1.80
2023-04-19T07:17:13.794Z,1.80
2023-04-19T07:19:42.326Z,1.73
2023-04-19T07:24:41.672Z,1.70
2023-04-19T07:27:09.434Z,1.73
2023-04-19T07:29:38.474Z,1.90
2023-04-19T07:32:06.731Z,1.73
2023-04-19T07:34:34.534Z,1.83
2023-04-19T07:37:02.233Z,1.43
2023-04-19T07:39:32.143Z,1.80
2023-04-19T07:42:01.397Z,2.00
2023-04-19T07:44:29.247Z,1.73
2023-04-19T07:46:56.994Z,1.80
2023-04-19T07:49:25.131Z,1.37
2023-04-19T07:51:52.867Z,1.67
2023-04-19T07:54:21.460Z,1.83
2023-04-19T07:56:52.065Z,1.60
2023-04-19T07:59:19.818Z,1.53
2023-04-19T08:01:47.610Z,1.70
2023-04-19T08:04:17.320Z,1.70
2023-04-19T08:06:45.621Z,1.57
2023-04-19T08:09:13.861Z,1.87
2023-04-19T08:11:43.063Z,1.70
2023-04-19T08:14:22.283Z,1.83
2023-04-19T08:17:22.099Z,1.87
2023-04-19T08:19:46.231Z,1.90
2023-04-19T08:22:14.005Z,1.97
2023-04-19T08:24:41.698Z,1.60
2023-04-19T08:27:10.031Z,1.43
2023-04-19T08:29:39.545Z,1.60
2023-04-19T08:32:07.636Z,1.90
2023-04-19T08:34:36.937Z,1.33
2023-04-19T08:37:05.115Z,1.83
2023-04-19T08:39:34.226Z,2.07
2023-04-19T08:42:10.995Z,1.90
2023-04-19T08:45:09.295Z,1.43
2023-04-19T08:47:44.880Z,2.13
2023-04-19T08:50:32.502Z,1.87
2023-04-19T08:53:16.242Z,1.90
2023-04-19T08:56:08.817Z,1.70
2023-04-19T08:58:54.851Z,1.97
2023-04-19T09:01:34.576Z,1.67
2023-04-19T09:04:21.618Z,1.67
2023-04-19T09:06:53.809Z,1.27
2023-04-19T09:09:36.492Z,1.80
2023-04-19T09:12:17.919Z,1.77
2023-04-19T09:15:00.396Z,1.60
2023-04-19T09:17:31.196Z,1.73
2023-04-19T09:19:59.659Z,1.87
2023-04-19T09:22:27.544Z,2.00
2023-04-19T09:27:29.262Z,1.47
2023-04-19T09:29:58.429Z,1.80
2023-04-19T09:32:27.273Z,1.57
2023-04-19T09:34:58.151Z,1.83
2023-04-19T09:37:51.285Z,1.50
2023-04-19T09:40:25.215Z,1.37
2023-04-19T09:48:03.072Z,1.40
2023-04-19T09:50:33.892Z,1.63
2023-04-19T09:53:07.629Z,1.60
2023-04-19T09:58:06.237Z,1.70
2023-04-19T10:00:47.522Z,1.53
2023-04-19T10:03:18.202Z,1.40
2023-04-19T10:05:47.526Z,1.50
2023-04-19T10:08:15.626Z,1.63
2023-04-19T10:10:46.213Z,1.80
2023-04-19T10:13:20.615Z,1.63
2023-04-19T10:15:55.594Z,1.60
2023-04-19T10:18:30.031Z,1.30
2023-04-19T10:21:02.409Z,2.00
2023-04-19T10:23:31.059Z,1.80
2023-04-19T10:25:59.571Z,1.23
2023-04-19T10:28:29.819Z,1.50
2023-04-19T10:31:02.663Z,1.30
2023-04-19T10:33:32.147Z,1.30
2023-04-19T10:36:01.883Z,1.23
2023-04-19T10:38:40.458Z,1.90
2023-04-19T10:41:16.935Z,1.23
2023-04-19T10:43:47.104Z,1.53
2023-04-19T10:46:17.331Z,1.10
2023-04-19T10:48:55.752Z,1.30
2023-04-19T10:51:28.868Z,1.60
2023-04-19T10:53:58.380Z,1.40
2023-04-19T10:57:02.315Z,1.40
2023-04-19T10:59:33.784Z,1.73
2023-04-19T11:02:03.150Z,1.60
2023-04-19T11:05:00.576Z,1.50
2023-04-19T11:07:29.801Z,1.60
2023-04-19T11:09:57.966Z,1.63
2023-04-19T11:12:25.683Z,1.40
2023-04-19T11:14:57.365Z,1.40
2023-04-19T11:17:27.603Z,1.57
2023-04-19T11:19:57.202Z,1.50
2023-04-19T11:22:36.816Z,1.57
2023-04-19T11:25:09.404Z,1.77
2023-04-19T11:27:37.871Z,1.40
2023-04-19T11:30:10.009Z,1.60
2023-04-19T11:32:38.553Z,1.90
2023-04-19T11:35:08.923Z,1.67
2023-04-19T11:37:39.741Z,1.80
2023-04-19T11:40:09.183Z,2.03
2023-04-19T11:42:37.025Z,1.73
2023-04-19T11:45:09.004Z,1.80
2023-04-19T11:47:49.125Z,1.70
2023-04-19T11:50:37.371Z,2.00
2023-04-19T11:53:14.995Z,1.50
2023-04-19T11:55:52.220Z,1.77
2023-04-19T11:58:30.393Z,1.43
2023-04-19T12:01:00.836Z,1.63
2023-04-19T12:03:29.404Z,1.70
2023-04-19T12:05:58.459Z,2.03
2023-04-19T12:08:36.192Z,1.57
2023-04-19T12:11:05.114Z,1.90
2023-04-19T12:13:34.141Z,1.97
2023-04-19T12:16:02.424Z,1.77
2023-04-19T12:18:44.547Z,1.80
2023-04-19T12:21:13.043Z,1.93
2023-04-19T12:23:42.067Z,2.23
2023-04-19T12:26:09.771Z,1.70
2023-04-19T12:28:37.539Z,1.33
2023-04-19T12:31:06.078Z,1.90
2023-04-19T12:33:33.786Z,1.60
2023-04-19T12:36:01.522Z,1.80
2023-04-19T12:38:29.290Z,1.77
2023-04-19T12:40:58.383Z,1.90
2023-04-19T12:43:26.109Z,1.80
2023-04-19T12:45:54.118Z,2.47
2023-04-19T12:48:21.854Z,1.97
2023-04-19T12:50:49.619Z,1.90
2023-04-19T12:53:17.630Z,1.83
2023-04-19T12:55:47.385Z,1.57
2023-04-19T12:58:17.178Z,1.90
2023-04-19T13:00:49.163Z,2.00
2023-04-19T13:03:17.010Z,2.10
2023-04-19T13:05:45.609Z,2.27
2023-04-19T13:08:28.289Z,2.10
2023-04-19T13:11:05.269Z,2.00
2023-04-19T13:13:35.694Z,1.90
2023-04-19T13:16:03.479Z,2.23
2023-04-19T13:18:31.357Z,2.37
2023-04-19T13:21:00.258Z,2.00
2023-04-19T13:23:28.102Z,2.40
2023-04-19T13:25:55.875Z,2.37
2023-04-19T13:28:23.784Z,2.17
2023-04-19T13:30:53.268Z,2.43
2023-04-19T13:33:21.130Z,2.30
2023-04-19T13:35:49.198Z,2.10
2023-04-19T13:38:16.891Z,2.50
2023-04-19T13:40:45.982Z,2.40
2023-04-19T13:43:13.708Z,1.80
2023-04-19T13:45:42.151Z,2.10
2023-04-19T13:48:12.227Z,2.40
2023-04-19T13:50:40.133Z,2.40
2023-04-19T13:53:08.127Z,2.50
2023-04-19T13:55:37.173Z,2.67
2023-04-19T13:58:04.999Z,2.20
2023-04-19T14:00:33.879Z,2.47
2023-04-19T14:03:02.035Z,2.57
2023-04-19T14:05:31.412Z,2.33
2023-04-19T14:08:01.490Z,2.23
2023-04-19T14:10:29.436Z,2.20
2023-04-19T14:12:57.304Z,2.20
2023-04-19T14:15:25.581Z,1.90
2023-04-19T14:17:53.433Z,2.17
2023-04-19T14:20:21.439Z,2.10
2023-04-19T14:22:50.887Z,2.27
2023-04-19T14:25:18.923Z,2.90
2023-04-19T14:27:46.614Z,2.80
2023-04-19T14:30:14.795Z,2.13
2023-04-19T14:32:42.688Z,2.10
2023-04-19T14:35:12.003Z,1.80
2023-04-19T14:37:39.876Z,2.50
2023-04-19T14:40:10.763Z,2.20
2023-04-19T14:42:38.493Z,2.30
2023-04-19T14:45:07.521Z,2.63
2023-04-19T14:47:35.572Z,2.30
2023-04-19T14:50:04.120Z,2.87
2023-04-19T14:52:32.580Z,2.23
2023-04-19T14:55:01.101Z,2.47
2023-04-19T14:57:30.190Z,1.80
2023-04-19T14:59:58.366Z,2.07
2023-04-19T15:02:26.601Z,2.20
2023-04-19T15:04:54.905Z,2.30
2023-04-19T15:07:22.789Z,2.50
2023-04-19T15:09:50.524Z,2.30
2023-04-19T15:12:18.431Z,2.10
2023-04-19T15:14:47.607Z,1.90
2023-04-19T15:17:15.365Z,2.60
2023-04-19T15:19:44.244Z,2.20
2023-04-19T15:22:12.265Z,2.20
2023-04-19T15:24:40.028Z,2.00
2023-04-19T15:27:08.199Z,2.03
2023-04-19T15:29:36.552Z,2.17
2023-04-19T15:32:06.204Z,2.30
2023-04-19T15:34:33.933Z,2.10
2023-04-19T15:37:02.465Z,2.00
2023-04-19T15:39:30.197Z,2.23
2023-04-19T15:41:58.631Z,2.20
2023-04-19T15:44:26.390Z,2.07
2023-04-19T15:46:54.297Z,1.83
2023-04-19T15:49:23.432Z,2.37
2023-04-19T15:51:51.197Z,2.30
2023-04-19T15:54:21.509Z,2.23
2023-04-19T15:56:49.269Z,1.70
2023-04-19T16:02:31.461Z,2.07
2023-04-19T16:05:00.873Z,1.83
2023-04-19T16:07:28.594Z,2.17
2023-04-19T16:09:56.292Z,2.53
2023-04-19T16:12:24.139Z,2.10
2023-04-19T16:14:52.243Z,2.10
2023-04-19T16:17:19.960Z,2.53
2023-04-19T16:19:48.223Z,2.47
2023-04-19T16:22:17.451Z,2.40
2023-04-19T16:24:46.396Z,2.40
2023-04-19T16:27:14.118Z,2.60
2023-04-19T16:29:41.813Z,2.33
2023-04-19T16:32:10.329Z,2.47
2023-04-19T16:34:38.130Z,2.17
2023-04-19T16:37:05.913Z,2.47
2023-04-19T16:39:34.970Z,2.70
2023-04-19T16:42:03.074Z,2.77
2023-04-19T16:44:30.805Z,2.80
2023-04-19T16:46:58.579Z,3.13
2023-04-19T16:49:26.495Z,2.70
2023-04-19T16:51:54.341Z,2.83
2023-04-19T16:54:22.115Z,2.80
2023-04-19T16:56:51.439Z,2.90
2023-04-19T16:59:19.419Z,2.73
2023-04-19T17:01:47.216Z,2.63
2023-04-19T17:04:15.229Z,2.60
2023-04-19T17:06:43.088Z,2.60
2023-04-19T17:09:10.820Z,2.70
2023-04-19T17:11:38.598Z,2.70
2023-04-19T17:14:07.693Z,2.40
2023-04-19T17:16:35.442Z,2.63
2023-04-19T17:19:03.142Z,2.37
2023-04-19T17:21:31.331Z,2.37
2023-04-19T17:23:59.081Z,2.53
2023-04-19T17:26:27.036Z,2.77
2023-04-19T17:28:54.742Z,2.63
2023-04-19T17:31:24.013Z,2.30
2023-04-19T17:33:51.846Z,2.83
2023-04-19T17:36:19.611Z,2.77
2023-04-19T17:38:47.450Z,2.53
2023-04-19T17:41:16.971Z,2.57
2023-04-19T17:43:45.032Z,2.60
2023-04-19T17:46:13.460Z,2.30
2023-04-19T17:48:43.206Z,3.07
2023-04-19T17:51:11.080Z,2.13
2023-04-19T17:53:38.970Z,2.57
2023-04-19T17:56:06.866Z,2.30
2023-04-19T17:58:36.044Z,2.43
2023-04-19T18:01:04.324Z,2.23
2023-04-19T18:03:33.428Z,2.30
2023-04-19T18:06:02.802Z,2.70
2023-04-19T18:08:32.531Z,2.43
2023-04-19T18:11:02.433Z,2.27
2023-04-19T18:13:31.325Z,2.40
2023-04-19T18:15:59.724Z,2.27
2023-04-19T18:18:27.480Z,2.10
2023-04-19T18:20:55.849Z,2.80
2023-04-19T18:23:24.919Z,2.97
2023-04-19T18:25:56.281Z,2.20
2023-04-19T18:28:25.645Z,2.50
2023-04-19T18:30:53.422Z,2.43
2023-04-19T18:33:21.186Z,2.30
2023-04-19T18:35:48.946Z,2.30
2023-04-19T18:38:16.764Z,2.23
2023-04-19T18:40:46.223Z,2.33
2023-04-19T18:43:14.217Z,1.90
2023-04-19T18:45:42.046Z,2.47
2023-04-19T18:48:10.121Z,2.83
2023-04-19T18:50:38.413Z,2.33
2023-04-19T18:53:06.358Z,2.10
2023-04-19T18:55:34.159Z,2.10
2023-04-19T18:58:03.382Z,2.40
2023-04-19T19:00:31.381Z,2.80
2023-04-19T19:03:00.506Z,2.50
2023-04-19T19:05:30.083Z,2.60
2023-04-19T19:07:58.024Z,1.73
2023-04-19T19:10:54.207Z,2.53
2023-04-19T19:13:15.060Z,2.60
2023-04-19T19:15:43.693Z,2.13
2023-04-19T19:18:11.486Z,2.63
2023-04-19T19:20:39.240Z,2.60
2023-04-19T19:23:07.219Z,3.00
2023-04-19T19:25:35.091Z,3.43
2023-04-19T19:28:08.297Z,3.10
2023-04-19T19:30:42.750Z,3.27
2023-04-19T19:33:10.921Z,3.50
2023-04-19T19:35:39.957Z,2.60
2023-04-19T19:38:07.951Z,2.77
2023-04-19T19:40:35.653Z,3.70
2023-04-19T19:43:03.486Z,3.23
2023-04-19T19:45:32.210Z,3.20
2023-04-19T19:48:02.206Z,3.40
2023-04-19T19:53:01.719Z,3.63
2023-04-19T19:55:30.014Z,3.40
2023-04-19T20:02:59.505Z,3.40
2023-04-19T20:05:29.656Z,3.47
2023-04-19T20:08:07.948Z,3.00
2023-04-19T20:10:36.288Z,3.43
2023-04-19T20:13:06.081Z,3.47
2023-04-19T20:15:35.223Z,2.97
2023-04-19T20:18:03.447Z,3.20
2023-04-19T20:20:33.241Z,3.47
2023-04-19T20:23:01.024Z,2.80
2023-04-19T20:25:31.044Z,3.47
2023-04-19T20:27:59.082Z,3.13
2023-04-19T20:30:26.870Z,3.23
2023-04-19T20:32:54.633Z,3.30
2023-04-19T20:35:23.203Z,3.40
2023-04-19T20:37:52.406Z,3.37
2023-04-19T20:40:20.161Z,3.63
2023-04-19T20:42:48.001Z,2.87
2023-04-19T20:45:15.868Z,3.47
2023-04-19T20:47:43.687Z,3.20
2023-04-19T20:50:12.013Z,3.50
2023-04-19T20:52:39.958Z,3.20
2023-04-19T20:55:10.268Z,3.20
2023-04-19T20:57:38.024Z,2.70
2023-04-19T21:00:08.615Z,2.90
2023-04-19T21:02:36.759Z,2.50
2023-04-19T21:05:04.961Z,3.10
2023-04-19T21:07:32.827Z,2.50
2023-04-19T21:10:00.570Z,2.67
2023-04-19T21:12:29.717Z,2.13
2023-04-19T21:14:57.430Z,2.50
2023-04-19T21:17:25.251Z,2.90
2023-04-19T21:19:53.039Z,2.70
2023-04-19T21:22:20.750Z,2.70
2023-04-19T21:24:48.910Z,2.60
2023-04-19T21:27:16.697Z,2.33
2023-04-19T21:29:45.902Z,2.63
2023-04-19T21:32:13.573Z,3.00
2023-04-19T21:34:41.301Z,2.70
2023-04-19T21:37:09.038Z,2.50
2023-04-19T21:39:36.811Z,3.47
2023-04-19T21:42:04.580Z,2.80
2023-04-19T21:44:32.456Z,2.67
2023-04-19T21:47:01.599Z,3.40
2023-04-19T21:49:29.374Z,2.53
2023-04-19T21:51:57.373Z,2.57
2023-04-19T21:54:33.484Z,3.00
2023-04-19T21:57:02.543Z,2.87
2023-04-19T21:59:30.668Z,2.80
2023-04-19T22:02:00.751Z,3.03
2023-04-19T22:04:30.697Z,3.30
2023-04-19T22:07:02.213Z,3.37
2023-04-19T22:09:31.088Z,3.60
2023-04-19T22:12:00.017Z,2.97
2023-04-19T22:14:27.865Z,3.33
2023-04-19T22:16:56.551Z,3.40
2023-04-19T22:19:25.910Z,3.20
2023-04-19T22:21:55.061Z,3.43
2023-04-19T22:24:23.021Z,3.10
2023-04-19T22:26:52.959Z,3.23
2023-04-19T22:29:21.009Z,3.07
2023-04-19T22:31:48.770Z,3.43
2023-04-19T22:34:16.656Z,3.50
2023-04-19T22:36:46.081Z,3.40
2023-04-19T22:39:13.881Z,3.80
2023-04-19T22:41:41.638Z,3.73
2023-04-19T22:44:09.371Z,3.03
2023-04-19T22:46:37.894Z,3.50
2023-04-19T22:49:06.130Z,3.80
2023-04-19T22:51:34.048Z,2.70
2023-04-19T22:54:03.617Z,3.87
2023-04-19T22:56:31.329Z,4.20
2023-04-19T22:58:59.688Z,3.97
2023-04-19T23:01:27.787Z,3.80
2023-04-19T23:03:55.613Z,3.77
2023-04-19T23:06:23.468Z,2.93
2023-04-19T23:08:51.588Z,3.03
2023-04-19T23:11:24.759Z,3.50
2023-04-19T23:13:53.714Z,3.10
2023-04-19T23:16:22.479Z,4.57
2023-04-19T23:18:50.413Z,3.77
2023-04-19T23:21:18.212Z,4.33
2023-04-19T23:23:45.985Z,3.73
2023-04-19T23:26:13.717Z,3.53
2023-04-19T23:28:42.774Z,3.40
2023-04-19T23:31:11.631Z,4.30
2023-04-19T23:33:39.312Z,3.87
2023-04-19T23:36:07.350Z,4.53
2023-04-19T23:38:35.085Z,4.17
2023-04-19T23:41:02.830Z,4.20
2023-04-19T23:43:30.558Z,4.53
2023-04-19T23:46:00.733Z,3.87
2023-04-19T23:48:28.483Z,4.40
2023-04-19T23:50:56.249Z,4.10
2023-04-19T23:53:24.052Z,4.00
2023-04-19T23:55:51.770Z,3.83
2023-04-19T23:58:19.473Z,3.17
